Aviation Digital Data Service (ADDS)

Output produced by METARs form (1029 UTC 25 June 2017)
found at http://aviationweather.gov/adds/metars/
 
KART 250904Z 2509/2606 16004KT P6SM SCT050 
     FM251300 21009KT P6SM FEW250 
     FM251600 25016G30KT P6SM SCT050 
     FM252300 25013KT P6SM BKN060 
     FM260200 25010KT P6SM VCSH BKN060 
     FM260500 26008KT P6SM BKN045